Ralph Wien Memorial Airport Kotzebue US
ICAO: PAOT
IATA:
Category: Medium
Scheduled Services:

Elevation: 14 ft
TransAlt. 18000 ft.

Airport Communications:
ASOS:135.45
ATIS:135.45
ANCHORAGE CNTR:119.2
CTAF:123.6
KOTZEBUE RDO:122.2
TWEB:115.7
UNICOM:122.8

PAOT Zoom In..

If Map Doesn't Load, Click Here

Runways:

(A) RW 09 length 5900 ft width 150 ft
ILS 110.70 / hdg 87

(B) RW 18 length 3876 ft width 90 ft
---- / hdg 179

(C) RW 27 length 5900 ft width 150 ft
---- / hdg 267

(D) RW 36 length 3876 ft width 90 ft
---- / hdg 359

Location; PAOT
Day. 24 / Time. 04.53 Zulu
* Altimeter: 29.64
* Temperature: 09° c. 48.2°f.
* Wind from: 070° Speed 08 kn.
Dewpoint: 03° c.
Visibility: 10 Statute Miles.
Clouds: Broken 4100 ft.

PAOT 240453Z 07008KT 10SM BKN041 09/03 A2964 RMK AO2 SLP037 T00890028 $


Wind From 070°
Speed 08 kn.

 
 
jpsmedia.com for Web Design worldairports.se 2018   terms of use